Terminal Aerodrome Forecast
Issued by NWS Sioux Falls, SD

Home | Current Version | Previous Version | Text Only | Print | Product List | Glossary On
Versions: 1 2 3 4 5 6 7 8 9 10 11 12 13 14 15
000
FTUS43 KFSD 141132
TAFFSD
TAF
KFSD 141132Z 1412/1512 08007KT P6SM VCSH BKN020
     FM141600 08010KT 6SM -SHRA SCT005 OVC008
     FM142200 35012G20KT 4SM -SHRA OVC008
     FM150200 33018G29KT 5SM BR VCSH OVC015
     FM150500 33017G27KT P6SM BKN030
     FM150800 33013KT P6SM SCT040=

USA.gov is the U.S. government's official web portal to all federal, state and local government web resources and services.